• Join FlightAware (Why Join?)
  • Login
  • US Flag 
09:36AM EST


 

Airport Tracker/Info


-or-


 

Live Flight TrackerFlight Track Log ✈ XOJ793 ✈ 19-Jul-2014 ✈ KSRQ - KBED

Flight Track Log - Related Links

Times and Time Zones

All times are in EDT time to prevent confusion due to time zone crossing. See the XOJ793 flight status page for this flight to view local times or setup timezone preferences in your user account.

Time Position Orientation Groundspeed Altitude Reporting Facility
EDT Latitude Longitude Course Direction KTS MPH feet Rate Location/Type
08:00AM 27.3833 -82.5500 138° Southeast 208 239 900  Level Tampa TRACON
08:01AM 27.3667 -82.5333 138° Southeast 193 222 1,800 2,820 Climbing Tampa TRACON
08:02AM 27.3333 -82.4833 127° Southeast 218 251 4,900 2,580 Climbing Tampa TRACON
08:04AM 27.3406 -82.5781 275° West 239 275 8,900 2,280 Climbing Miami Center
08:05AM 27.3917 -82.6644 304° West 275 316 11,300 1,860 Climbing Miami Center
08:06AM 27.4411 -82.7475 304° West 313 360 12,800 1,500 Climbing Miami Center
08:07AM 27.5258 -82.7922 335° Northwest 345 397 14,400 1,560 Climbing Miami Center
08:09AM 27.7325 -82.7894 North 353 406 17,700 1,560 Climbing Jacksonville Center
08:10AM 27.8328 -82.7917 359° North 353 406 19,200 1,500 Climbing Jacksonville Center
08:11AM 27.9392 -82.7892 North 364 419 20,800 1,560 Climbing Jacksonville Center
08:12AM 28.0433 -82.7892 360° North 364 419 22,400 1,620 Climbing Jacksonville Center
08:13AM 28.1519 -82.7867 North 370 426 24,100 1,560 Climbing Jacksonville Center
08:14AM 28.2625 -82.7889 359° North 382 440 25,600 900 Climbing Jacksonville Center
08:15AM 28.3794 -82.7864 North 397 457 26,000 720 Climbing Jacksonville Center
08:16AM 28.5047 -82.7792 North 420 483 27,100 1,080 Climbing Jacksonville Center
08:17AM 28.6297 -82.7672 North 440 506 28,200 960 Climbing Jacksonville Center
08:18AM 28.7406 -82.7553 North 447 514 29,100 960 Climbing Jacksonville Center
08:19AM 28.8697 -82.7433 North 447 514 30,200 1,080 Climbing Jacksonville Center
08:20AM 28.9972 -82.7311 North 453 521 31,300 1,080 Climbing Jacksonville Center
08:21AM 29.1308 -82.7192 North 459 528 32,400 1,200 Climbing Jacksonville Center
08:22AM 29.2789 -82.7044 North 474 545 33,800 1,200 Climbing Jacksonville Center
08:23AM 29.4144 -82.6947 North 479 551 34,900 960 Climbing Jacksonville Center
08:24AM 29.5378 -82.6944 360° North 484 557 35,800 1,200 Climbing Jacksonville Center
08:25AM 29.6756 -82.6942 360° North 484 557 37,400 1,740 Climbing Jacksonville Center
08:26AM 29.8069 -82.6842 North 484 557 39,300 1,980 Climbing Jacksonville Center
08:27AM 29.9469 -82.6361 17° North 470 541 41,400 1,860 Climbing Jacksonville Center
08:28AM 30.0511 -82.6069 14° North 451 519 43,100 1,260 Climbing Jacksonville Center
08:29AM 30.1700 -82.5681 16° North 438 504 44,000 660 Climbing Jacksonville Center
08:30AM 30.2911 -82.5294 15° North 433 498 44,500 480 Climbing Jacksonville Center
08:31AM 30.4100 -82.4903 16° North 433 498 45,000 240 Climbing Jacksonville Center
08:32AM 30.5331 -82.4489 16° North 444 511 45,000  Level Jacksonville Center
08:33AM 30.6603 -82.4094 15° North 455 524 45,000  Level Jacksonville Center
08:34AM 30.7894 -82.3653 16° North 465 535 45,000  Level Jacksonville Center
08:35AM 30.9167 -82.3236 16° North 470 541 45,000  Level Jacksonville Center
08:36AM 31.0481 -82.2814 15° North 470 541 45,000  Level Jacksonville Center
08:37AM 31.1772 -82.2344 17° North 475 547 45,000  Level Jacksonville Center
08:38AM 31.3022 -82.1706 24° Northeast 475 547 45,100 120 Climbing Jacksonville Center
08:39AM 31.4250 -82.0989 26° Northeast 485 558 45,300 120 Climbing Jacksonville Center
08:40AM 31.5478 -82.0319 25° Northeast 485 558 45,400 180 Climbing Jacksonville Center
08:41AM 31.6744 -81.9553 27° Northeast 467 537 45,700 180 Climbing Jacksonville Center
08:42AM 31.7992 -81.8878 25° Northeast 472 543 45,800 120 Climbing Jacksonville Center
08:43AM 31.9094 -81.8206 27° Northeast 481 554 46,000 180 Climbing Jacksonville Center
08:44AM 32.0444 -81.7431 26° Northeast 481 554 46,200 120 Climbing Jacksonville Center
08:45AM 32.1669 -81.6753 25° Northeast 490 564 46,300 120 Climbing Jacksonville Center
08:46AM 32.2769 -81.6100 27° Northeast 485 558 46,500 120 Climbing Jacksonville Center
08:47AM 32.4139 -81.5292 26° Northeast 492 566 46,600 120 Climbing Jacksonville Center
08:48AM 32.5192 -81.4292 39° Northeast 486 559 46,800 180 Climbing Jacksonville Center
08:49AM 32.6203 -81.3139 44° Northeast 486 559 47,000 60 Climbing Jacksonville Center
08:50AM 32.7108 -81.2136 43° Northeast 491 565 47,000  Level Jacksonville Center
08:51AM 32.8114 -81.1006 43° Northeast 491 565 47,000  Level Jacksonville Center
08:52AM 32.9119 -80.9872 43° Northeast 491 565 47,000  Level Jacksonville Center
08:53AM 33.0125 -80.8736 43° Northeast 491 565 47,000  Level Jacksonville Center
08:54AM 33.1131 -80.7597 43° Northeast 491 565 47,000  Level Jacksonville Center
08:55AM 33.2175 -80.6456 42° Northeast 491 565 47,000  Level Jacksonville Center
08:56AM 33.3197 -80.5311 43° Northeast 491 565 47,000  Level Jacksonville Center
08:57AM 33.4219 -80.4139 44° Northeast 491 565 47,000  Level Jacksonville Center
08:58AM 33.5258 -80.2964 43° Northeast 497 572 47,000  Level Jacksonville Center
08:59AM 33.6358 -80.1686 44° Northeast 497 572 47,000  Level Jacksonville Center
09:00AM 33.7375 -80.0506 44° Northeast 497 572 47,000  Level Jacksonville Center
09:01AM 33.8392 -79.9322 44° Northeast 502 578 47,000  Level Jacksonville Center
09:03AM 34.0800 -79.6536 44° Northeast 513 590 47,000  Level Washington Center
09:04AM 34.1800 -79.5331 45° Northeast 513 590 47,000  Level Washington Center
09:05AM 34.2733 -79.4194 45° Northeast 518 596 47,000  Level Washington Center
09:06AM 34.3772 -79.2983 44° Northeast 518 596 47,000  Level Washington Center
09:07AM 34.4789 -79.1794 44° Northeast 506 582 47,000  Level Washington Center
09:08AM 34.5786 -79.0578 45° Northeast 500 575 47,000  Level Washington Center
09:09AM 34.6861 -78.9436 41° Northeast 500 575 47,000  Level Washington Center
09:10AM 34.7956 -78.8292 41° Northeast 505 581 47,000  Level Washington Center
09:11AM 34.9053 -78.7147 41° Northeast 505 581 47,000  Level Washington Center
09:12AM 35.0144 -78.6022 40° Northeast 505 581 47,000  Level Washington Center
09:13AM 35.1217 -78.4894 41° Northeast 505 581 47,000  Level Washington Center
09:14AM 35.2308 -78.3739 41° Northeast 505 581 47,000  Level Washington Center
09:15AM 35.3525 -78.2456 41° Northeast 514 592 47,000  Level Washington Center
09:16AM 35.4636 -78.1294 40° Northeast 519 597 47,000  Level Washington Center
09:17AM 35.5744 -78.0181 39° Northeast 519 597 47,000  Level Washington Center
09:18AM 35.6811 -77.9036 41° Northeast 519 597 47,000  Level Washington Center
09:19AM 35.7917 -77.7864 41° Northeast 519 597 47,000  Level Washington Center
09:20AM 35.9022 -77.6692 41° Northeast 519 597 47,000  Level Washington Center
09:21AM 36.0106 -77.5539 41° Northeast 519 597 47,000  Level Washington Center
09:22AM 36.1211 -77.4356 41° Northeast 519 597 47,000  Level Washington Center
09:23AM 36.2122 -77.3322 42° Northeast 507 583 47,000  Level Washington Center
09:24AM 36.3244 -77.2161 40° Northeast 507 583 47,000  Level Washington Center
09:25AM 36.4514 -77.0897 39° Northeast 523 602 47,000  Level Washington Center
09:26AM 36.5653 -76.9781 38° Northeast 528 608 47,000  Level Washington Center
09:27AM 36.6792 -76.8636 39° Northeast 528 608 47,000 -240 Level Washington Center
09:28AM 36.7953 -76.7486 38° Northeast 528 608 46,600 -540 Descending Washington Center
09:29AM 36.9108 -76.6308 39° Northeast 528 608 46,000 -600 Descending Washington Center
09:30AM 37.0289 -76.5128 39° Northeast 528 608 45,500 -540 Descending Washington Center
09:31AM 37.1422 -76.3969 39° Northeast 528 608 45,000 -300 Descending Washington Center
09:32AM 37.2578 -76.2808 39° Northeast 528 608 45,000  Level Washington Center
09:33AM 37.3689 -76.1694 39° Northeast 523 602 45,000  Level Washington Center
09:34AM 37.4881 -76.0603 36° Northeast 523 602 45,000  Level Washington Center
09:35AM 37.5969 -75.9456 40° Northeast 518 596 45,000  Level Washington Center
09:36AM 37.7100 -75.8281 39° Northeast 524 603 45,000  Level Washington Center
09:37AM 37.8247 -75.7128 38° Northeast 524 603 45,000  Level Washington Center
09:38AM 37.9353 -75.5944 40° Northeast 524 603 45,000  Level Washington Center
09:39AM 38.0481 -75.4783 39° Northeast 524 603 45,000  Level Washington Center
09:40AM 38.1625 -75.3594 39° Northeast 524 603 45,000  Level Washington Center
09:41AM 38.2769 -75.2425 39° Northeast 524 603 45,000  Level Washington Center
09:42AM 38.3828 -75.1203 42° Northeast 519 597 45,000  Level Washington Center
09:43AM 38.4969 -75.0000 39° Northeast 519 597 45,000  Level Washington Center
09:44AM 38.6108 -74.8797 40° Northeast 525 604 45,000  Level Washington Center
09:45AM 38.7247 -74.7614 39° Northeast 525 604 45,000  Level Washington Center
09:46AM 38.8364 -74.6403 40° Northeast 519 597 45,000  Level Washington Center
09:47AM 38.9481 -74.5214 40° Northeast 519 597 45,000  Level Washington Center
09:48AM 39.0636 -74.3967 40° Northeast 526 605 45,000  Level Washington Center
09:51AM 39.3303 -74.1044 40° Northeast 531 611 45,000  Level Boston Center
09:52AM 39.4433 -73.9814 40° Northeast 532 612 45,000  Level Boston Center
09:53AM 39.5617 -73.8683 36° Northeast 532 612 45,000  Level Boston Center
09:54AM 39.7072 -73.7372 35° Northeast 533 613 45,000  Level Boston Center
09:55AM 39.8283 -73.6283 35° Northeast 533 613 45,000  Level Boston Center
09:56AM 39.9517 -73.5142 35° Northeast 533 613 45,000 -900 Level Boston Center
09:57AM 40.0756 -73.4025 35° Northeast 537 618 43,200 -1,920 Descending Boston Center
09:58AM 40.1967 -73.2886 36° Northeast 537 618 41,000 -2,160 Descending Boston Center
09:59AM 40.3153 -73.1803 35° Northeast 537 618 38,800 -2,220 Descending Boston Center
10:00AM 40.4389 -73.0636 36° Northeast 546 628 36,600 -2,460 Descending Boston Center
10:01AM 40.5911 -72.9217 35° Northeast 559 643 33,800 -2,520 Descending Boston Center
10:02AM 40.7164 -72.8053 35° Northeast 558 642 31,400 -2,220 Descending Boston Center
10:03AM 40.8078 -72.6692 48° Northeast 541 623 29,300 -2,220 Descending Boston Center
10:04AM 40.9000 -72.5214 50° Northeast 532 612 26,900 -2,580 Descending Boston Center
10:05AM 41.0083 -72.3525 50° Northeast 508 585 24,000 -2,640 Descending Boston Center
10:06AM 41.1211 -72.2522 34° Northeast 482 555 21,500 -2,460 Descending Boston Center
10:07AM 41.2444 -72.2233 10° North 455 524 19,100 -2,280 Descending Boston Center
10:08AM 41.3789 -72.1936 North 448 516 16,900 -2,160 Descending Boston Center
10:09AM 41.5008 -72.1672 North 442 509 14,700 -2,400 Descending Boston Center
10:10AM 41.6081 -72.1425 10° North 398 458 12,100 -1,980 Descending Boston Center
10:11AM 41.7047 -72.1214 North 355 409 11,000 -1,020 Descending Boston Center
10:11AM 41.7228 -72.1161 12° North 354 407 11,000 -180 Level Boston Center
10:12AM 41.8208 -72.0953 North 364 419 10,800 -720 Descending Boston Center
10:13AM 41.9158 -72.0742 North 342 394 9,600 -1,200 Descending Boston Center
10:14AM 41.9939 -72.0558 10° North 287 330 8,400 -1,320 Descending Boston Center
10:15AM 42.0783 -72.0383 North 269 310 6,800 -1,500 Descending Boston Center
10:16AM 42.1425 -71.9856 31° Northeast 278 320 5,400 -900 Descending Boston Center
10:17AM 42.2019 -71.9219 38° Northeast 271 312 5,000 -240 Descending Boston Center
10:18AM 42.2567 -71.8622 39° Northeast 262 302 5,000  Level Boston Center
10:19AM 42.3167 -71.7942 40° Northeast 261 300 5,000  Level Boston Center
10:20AM 42.3739 -71.7258 41° Northeast 265 305 5,000 -60 Level Boston Center
10:21AM 42.4164 -71.6461 54° Northeast 263 303 4,900 -480 Descending Boston Center
10:22AM 42.4608 -71.5650 53° Northeast 252 290 4,000 -540 Descending Boston Center
10:23AM 42.5031 -71.4917 52° Northeast 249 287 3,900 -540 Descending Boston Center
10:24AM 42.5286 -71.3936 70° East 266 306 3,000 -480 Descending Boston Center
10:26AM 42.5242 -71.2956 93° East 264 304 3,000 -60 Level Boston Center
10:27AM 42.5203 -71.2047 93° East 222 255 2,900 -540 Descending Boston Center
10:28AM 42.4956 -71.1628 129° Southeast 162 186 2,000 -900 Descending Boston Center
10:29AM 42.4664 -71.2031 226° Southwest 151 174 1,100 -780 Descending Boston Center
10:30AM 42.4686 -71.2589 273° West 141 162 400 -360 Descending Boston Center
10:31AM 42.4742 -71.3036 280° West 141 162 400  Level Boston Center